Time;durP1;ratioP1;P1;durP2;ratioP2;P2;SDS_P1;SDS_P2;PMS_P1;PMS_P2;Temp;Humidity;BMP_temperature;BMP_pressure;BME280_temperature;BME280_humidity;BME280_pressure;Samples;Min_cycle;Max_cycle;Signal;HPM_P1;HPM_P2
2023/10/20 00:02:15;;;;;;;;;;;;;;;-144.99;100.00;52456.25;5083264;28;20385;-70
2023/10/20 00:04:42;;;;;;;;;;;;;;;-144.99;100.00;52460.31;5080543;28;20029;-69
2023/10/20 00:07:08;;;;;;;;;;;;;;;-144.99;100.00;52448.09;5083466;28;19996;-69
2023/10/20 00:09:36;;;;;;;;;;;;;;;-144.99;100.00;52488.84;5086354;28;19963;-69
2023/10/20 00:12:04;;;;;;;;;;;;;;;-144.99;100.00;52425.66;5086538;28;19956;-66
2023/10/20 00:14:31;;;;;;;;;;;;;;;-144.99;100.00;52456.25;5084687;28;20632;-66
2023/10/20 00:16:57;;;;;;;;;;;;;;;-144.99;100.00;52476.63;5078715;28;19932;-67
2023/10/20 00:19:24;;;;;;;;;;;;;;;-144.99;100.00;52472.56;5090953;28;19968;-67
2023/10/20 00:21:52;;;;;;;;;;;;;;;-144.99;100.00;52456.25;5092533;28;19968;-70
2023/10/20 00:24:18;;;;;;;;;;;;;;;-144.99;100.00;52454.22;5084853;28;19924;-70
2023/10/20 00:26:46;;;;;;;;;;;;;;;-144.99;100.00;52431.78;5092674;28;20365;-70
2023/10/20 00:29:13;;;;;;;;;;;;;;;-144.99;100.00;52484.78;5090698;28;19971;-71
2023/10/20 00:31:39;;;;;;;;;;;;;;;-144.99;100.00;52456.25;5096023;28;19983;-70
2023/10/20 00:34:06;;;;;;;;;;;;;;;-144.99;100.00;52472.56;5088024;28;19959;-69
2023/10/20 00:36:32;;;;;;;;;;;;;;;-144.99;100.00;52464.41;5084586;28;19972;-69
2023/10/20 00:38:59;;;;;;;;;;;;;;;-144.99;100.00;52486.81;5086465;28;20369;-68
2023/10/20 00:41:25;;;;;;;;;;;;;;;-144.99;100.00;52464.41;5079192;28;20357;-68
2023/10/20 00:43:53;;;;;;;;;;;;;;;-144.99;100.00;52433.81;5085483;28;19924;-68
2023/10/20 00:46:19;;;;;;;;;;;;;;;-144.99;100.00;52468.47;5081912;28;19925;-66
2023/10/20 00:48:46;;;;;;;;;;;;;;;-144.99;100.00;52464.41;5086523;28;19955;-68
2023/10/20 00:51:13;;;;;;;;;;;;;;;-144.99;100.00;52480.72;5082022;28;20393;-69
2023/10/20 00:53:40;;;;;;;;;;;;;;;-144.99;100.00;52478.66;5086577;28;20395;-69
2023/10/20 00:56:07;;;;;;;;;;;;;;;-144.99;100.00;52480.72;5079711;28;20410;-68
2023/10/20 00:58:33;;;;;;;;;;;;;;;-144.99;100.00;52452.16;5085305;28;20035;-64
2023/10/20 01:01:03;;;;;;;;;;;;;;;-144.99;100.00;52452.16;5080701;28;20015;-63
2023/10/20 01:03:32;;;;;;;;;;;;;;;-144.99;100.00;52470.50;5080571;28;19928;-63
2023/10/20 01:05:58;;;;;;;;;;;;;;;-144.99;100.00;52488.84;5087460;28;19940;-62
2023/10/20 01:08:25;;;;;;;;;;;;;;;-144.99;100.00;52472.56;5086049;28;19974;-62
2023/10/20 01:10:53;;;;;;;;;;;;;;;-144.99;100.00;52460.31;5085328;28;20322;-61
2023/10/20 01:13:19;;;;;;;;;;;;;;;-144.99;100.00;52472.56;5092282;28;20058;-61
2023/10/20 01:15:46;;;;;;;;;;;;;;;-144.99;100.00;52435.88;5083253;28;20368;-65
2023/10/20 01:18:14;;;;;;;;;;;;;;;-144.99;100.00;52476.63;5080732;28;19928;-64
2023/10/20 01:20:41;;;;;;;;;;;;;;;-144.99;100.00;52435.88;5082215;28;19972;-65
2023/10/20 01:23:07;;;;;;;;;;;;;;;-144.99;100.00;52478.66;5082584;28;20293;-65
2023/10/20 01:25:35;;;;;;;;;;;;;;;-144.99;100.00;52470.50;5080046;28;20023;-65
2023/10/20 01:28:03;;;;;;;;;;;;;;;-144.99;100.00;52444.03;5088233;28;20217;-65
2023/10/20 01:30:29;;;;;;;;;;;;;;;-144.99;100.00;52501.09;5086600;28;19981;-65
2023/10/20 01:32:56;;;;;;;;;;;;;;;-144.99;100.00;52501.09;5088079;28;19928;-66
2023/10/20 01:35:22;;;;;;;;;;;;;;;-144.99;100.00;52435.88;5094532;22;19912;-70
2023/10/20 01:37:49;;;;;;;;;;;;;;;-144.99;100.00;52464.41;5083575;28;19924;-71
2023/10/20 01:40:17;;;;;;;;;;;;;;;-144.99;100.00;52470.50;5086516;28;19932;-72
2023/10/20 01:42:45;;;;;;;;;;;;;;;-144.99;100.00;52509.25;5084165;28;20326;-72
2023/10/20 01:45:11;;;;;;;;;;;;;;;-144.99;100.00;52464.41;5087824;28;20011;-71
2023/10/20 01:47:38;;;;;;;;;;;;;;;-144.99;100.00;52441.97;5077435;28;19981;-72
2023/10/20 01:50:05;;;;;;;;;;;;;;;-144.99;100.00;52452.16;5077157;28;19977;-72
2023/10/20 01:52:32;;;;;;;;;;;;;;;-144.99;100.00;52435.88;5073990;28;19932;-71
2023/10/20 01:54:59;;;;;;;;;;;;;;;-144.99;100.00;52490.91;5085336;28;20015;-71
2023/10/20 01:57:26;;;;;;;;;;;;;;;-144.99;100.00;52472.56;5077819;28;20451;-72
2023/10/20 01:59:53;;;;;;;;;;;;;;;-144.99;100.00;52468.47;5081146;28;19959;-72
2023/10/20 02:02:20;;;;;;;;;;;;;;;-144.99;100.00;52468.47;5077473;28;19970;-72
2023/10/20 02:04:46;;;;;;;;;;;;;;;-144.99;100.00;52468.47;5076883;28;19959;-72
2023/10/20 02:07:13;;;;;;;;;;;;;;;-144.99;100.00;52456.25;5083989;28;19955;-77
2023/10/20 02:09:39;;;;;;;;;;;;;;;-144.99;100.00;52484.78;5103811;28;19962;-71
2023/10/20 02:12:06;;;;;;;;;;;;;;;-144.99;100.00;52492.94;5071078;28;20015;-71
2023/10/20 02:14:33;;;;;;;;;;;;;;;-144.99;100.00;52464.41;5082074;28;20023;-72
2023/10/20 02:17:00;;;;;;;;;;;;;;;-144.99;100.00;52456.25;5090726;28;20485;-72
2023/10/20 02:19:27;;;;;;;;;;;;;;;-144.99;100.00;52488.84;5090937;28;19951;-72
2023/10/20 02:21:53;;;;;;;;;;;;;;;-144.99;100.00;52480.72;5087745;28;20318;-72
2023/10/20 02:24:20;;;;;;;;;;;;;;;-144.99;100.00;52468.47;5081554;28;20014;-72
2023/10/20 02:26:47;;;;;;;;;;;;;;;-144.99;100.00;52456.25;5086940;28;19985;-72
2023/10/20 02:29:14;;;;;;;;;;;;;;;-144.99;100.00;52423.63;5085879;28;19977;-73
2023/10/20 02:31:41;;;;;;;;;;;;;;;-144.99;100.00;52452.16;5078362;28;19924;-73
2023/10/20 02:34:09;;;;;;;;;;;;;;;-144.99;100.00;52501.09;5085905;28;20461;-73
2023/10/20 02:36:35;;;;;;;;;;;;;;;-144.99;100.00;52458.28;5084408;28;19960;-73
2023/10/20 02:39:02;;;;;;;;;;;;;;;-144.99;100.00;52448.09;5083340;28;19958;-73
2023/10/20 02:41:29;;;;;;;;;;;;;;;-144.99;100.00;52431.78;5084863;28;19938;-73
2023/10/20 02:43:55;;;;;;;;;;;;;;;-144.99;100.00;52513.31;5081649;28;19928;-73
2023/10/20 02:46:22;;;;;;;;;;;;;;;-144.99;100.00;52488.84;5090045;28;19948;-72
2023/10/20 02:48:49;;;;;;;;;;;;;;;-144.99;100.00;52460.31;5082954;28;20464;-73
2023/10/20 02:51:17;;;;;;;;;;;;;;;-144.99;100.00;52533.69;5083993;28;19979;-72
2023/10/20 02:53:44;;;;;;;;;;;;;;;-144.99;100.00;52505.16;5099071;28;19974;-73
2023/10/20 02:56:12;;;;;;;;;;;;;;;-144.99;100.00;52472.56;5091872;28;20017;-73
2023/10/20 02:58:38;;;;;;;;;;;;;;;-144.99;100.00;52427.72;5098599;28;19982;-74
2023/10/20 03:01:06;;;;;;;;;;;;;;;-144.99;100.00;52476.63;5101210;28;19935;-73
2023/10/20 03:03:32;;;;;;;;;;;;;;;-144.99;100.00;52439.94;5102632;28;19960;-74
2023/10/20 03:06:00;;;;;;;;;;;;;;;-144.99;100.00;52448.09;5106174;28;19928;-72
2023/10/20 03:08:28;;;;;;;;;;;;;;;-144.99;100.00;52448.09;5101468;28;19928;-73
2023/10/20 03:10:55;;;;;;;;;;;;;;;-144.99;100.00;52464.41;5106945;28;19924;-74
2023/10/20 03:13:22;;;;;;;;;;;;;;;-144.99;100.00;52476.63;5100508;28;19949;-75
2023/10/20 03:15:48;;;;;;;;;;;;;;;-144.99;100.00;52448.09;5102609;28;19966;-74
2023/10/20 03:18:16;;;;;;;;;;;;;;;-144.99;100.00;52456.25;5109038;28;19924;-73
2023/10/20 03:20:43;;;;;;;;;;;;;;;-144.99;100.00;52505.16;5100610;28;19924;-73
2023/10/20 03:23:10;;;;;;;;;;;;;;;-144.99;100.00;52488.84;5092194;28;19931;-73
2023/10/20 03:25:37;;;;;;;;;;;;;;;-144.99;100.00;52468.47;5096713;28;19967;-73
2023/10/20 03:28:05;;;;;;;;;;;;;;;-144.99;100.00;52452.16;5090807;28;19931;-73
2023/10/20 03:30:31;;;;;;;;;;;;;;;-144.99;100.00;52480.72;5085793;28;20030;-73
2023/10/20 03:32:58;;;;;;;;;;;;;;;-144.99;100.00;52462.34;5080999;28;19964;-73
2023/10/20 03:35:24;;;;;;;;;;;;;;;-144.99;100.00;52476.63;5081801;28;19975;-73
2023/10/20 03:37:54;;;;;;;;;;;;;;;-144.99;100.00;52452.16;5083224;28;19924;-72
2023/10/20 03:40:23;;;;;;;;;;;;;;;-144.99;100.00;52472.56;5082320;28;20399;-72
2023/10/20 03:42:51;;;;;;;;;;;;;;;-144.99;100.00;52501.09;5074931;28;20497;-73
2023/10/20 03:45:18;;;;;;;;;;;;;;;-144.99;100.00;52456.25;5083046;28;20826;-72
2023/10/20 03:47:44;;;;;;;;;;;;;;;-144.99;100.00;52464.41;5098112;28;19928;-73
2023/10/20 03:50:15;;;;;;;;;;;;;;;-144.99;100.00;52474.59;5080994;28;19934;-72
2023/10/20 03:52:44;;;;;;;;;;;;;;;-144.99;100.00;52488.84;5084184;28;19935;-72
2023/10/20 03:55:13;;;;;;;;;;;;;;;-144.99;100.00;52523.50;5076952;28;20511;-72
2023/10/20 03:57:40;;;;;;;;;;;;;;;-144.99;100.00;52460.31;5076010;28;19924;-72
2023/10/20 04:00:17;;;;;;;;;;;;;;;-144.99;100.00;52474.59;5077359;28;19928;-72
2023/10/20 04:02:46;;;;;;;;;;;;;;;-144.99;100.00;52484.78;5087326;28;19989;-73
2023/10/20 04:05:13;;;;;;;;;;;;;;;-144.99;100.00;52460.31;5091005;28;19928;-73
2023/10/20 04:07:39;;;;;;;;;;;;;;;-144.99;100.00;52480.72;5082293;28;19932;-73
2023/10/20 04:10:06;;;;;;;;;;;;;;;-144.99;100.00;52458.28;5084633;28;20493;-73
2023/10/20 04:12:33;;;;;;;;;;;;;;;-144.99;100.00;52497.00;5074764;28;19928;-73
2023/10/20 04:15:00;;;;;;;;;;;;;;;-144.99;100.00;52492.94;5080864;28;20518;-72
2023/10/20 04:17:28;;;;;;;;;;;;;;;-144.99;100.00;52509.25;5095698;28;19928;-70
2023/10/20 04:19:55;;;;;;;;;;;;;;;-144.99;100.00;52513.31;5087462;28;19947;-72
2023/10/20 04:22:23;;;;;;;;;;;;;;;-144.99;100.00;52456.25;5087328;28;19925;-71
2023/10/20 04:24:49;;;;;;;;;;;;;;;-144.99;100.00;52529.63;5086992;28;19981;-71
2023/10/20 04:27:21;;;;;;;;;;;;;;;-144.99;100.00;52478.66;5087371;28;19924;-72
2023/10/20 04:41:51;;;;;;;;;;;;;;;-144.99;100.00;52474.59;5081072;28;19925;-72
2023/10/20 04:43:38;;;;;;;;;;;;;;;-144.99;100.00;52468.47;5094843;28;19980;-72
2023/10/20 04:49:27;;;;;;;;;;;;;;;-144.99;100.00;52492.94;5077091;28;19938;-72
2023/10/20 04:52:06;;;;;;;;;;;;;;;-144.99;100.00;52497.00;5083261;28;19924;-72
2023/10/20 04:54:44;;;;;;;;;;;;;;;-144.99;100.00;52464.41;5075945;28;19932;-74
2023/10/20 04:57:50;;;;;;;;;;;;;;;-144.99;100.00;52482.75;5082888;28;20833;-73
2023/10/20 05:00:37;;;;;;;;;;;;;;;-144.99;100.00;52494.97;5079119;28;20633;-73
2023/10/20 05:05:58;;;;;;;;;;;;;;;-144.99;100.00;52468.47;5074511;28;19939;-73
2023/10/20 05:08:25;;;;;;;;;;;;;;;-144.99;100.00;52472.56;5077705;28;19935;-74
2023/10/20 05:10:53;;;;;;;;;;;;;;;-144.99;100.00;52486.81;5078188;28;19928;-74
2023/10/20 05:13:22;;;;;;;;;;;;;;;-144.99;100.00;52468.47;4375825;28;10000634;-73
2023/10/20 05:15:50;;;;;;;;;;;;;;;-144.99;100.00;52513.31;5072310;28;19929;-73
2023/10/20 05:18:16;;;;;;;;;;;;;;;-144.99;100.00;52458.28;5091860;28;20354;-75
2023/10/20 05:20:43;;;;;;;;;;;;;;;-144.99;100.00;52480.72;5085238;28;20015;-74
2023/10/20 05:23:12;;;;;;;;;;;;;;;-144.99;100.00;52480.72;5085817;28;20287;-73
2023/10/20 05:25:45;;;;;;;;;;;;;;;-144.99;100.00;52476.63;5083591;28;20018;-74
2023/10/20 05:28:11;;;;;;;;;;;;;;;-144.99;100.00;52490.91;5074599;28;19924;-74
2023/10/20 05:30:42;;;;;;;;;;;;;;;-144.99;100.00;52468.47;5080528;28;19951;-74
2023/10/20 05:33:09;;;;;;;;;;;;;;;-144.99;100.00;52509.25;5086657;28;19947;-74
2023/10/20 05:35:35;;;;;;;;;;;;;;;-144.99;100.00;52454.22;5078197;28;19928;-73
2023/10/20 05:38:02;;;;;;;;;;;;;;;-144.99;100.00;52509.25;5087095;28;19991;-73
2023/10/20 05:40:29;;;;;;;;;;;;;;;-144.99;100.00;52497.00;5085267;28;20004;-73
2023/10/20 05:42:56;;;;;;;;;;;;;;;-144.99;100.00;52448.09;5089587;28;20011;-74
2023/10/20 05:45:22;;;;;;;;;;;;;;;-144.99;100.00;52480.72;5084742;28;19928;-73
2023/10/20 05:47:50;;;;;;;;;;;;;;;-144.99;100.00;52505.16;5075463;28;19935;-74
2023/10/20 05:50:17;;;;;;;;;;;;;;;-144.99;100.00;52501.09;5067797;28;19964;-73
2023/10/20 05:52:43;;;;;;;;;;;;;;;-144.99;100.00;52482.75;5078739;28;20444;-72
2023/10/20 05:55:10;;;;;;;;;;;;;;;-144.99;100.00;52507.19;5098396;28;19970;-72
2023/10/20 05:57:37;;;;;;;;;;;;;;;-144.99;100.00;52501.09;5096788;28;19958;-73
2023/10/20 06:00:04;;;;;;;;;;;;;;;-144.99;100.00;52464.41;5069785;28;19971;-73
2023/10/20 06:02:32;;;;;;;;;;;;;;;-144.99;100.00;52484.78;5077275;28;20309;-73
2023/10/20 06:04:58;;;;;;;;;;;;;;;-144.99;100.00;52501.09;5081863;28;20043;-73
2023/10/20 06:07:25;;;;;;;;;;;;;;;-144.99;100.00;52503.13;5082811;28;19951;-74
2023/10/20 06:09:51;;;;;;;;;;;;;;;-144.99;100.00;52478.66;5081671;28;20463;-73
2023/10/20 06:12:18;;;;;;;;;;;;;;;-144.99;100.00;52476.63;5074762;28;19971;-74
2023/10/20 06:14:46;;;;;;;;;;;;;;;-144.99;100.00;52513.31;5083049;28;19924;-74
2023/10/20 06:17:17;;;;;;;;;;;;;;;-144.99;100.00;52448.09;5081054;28;20322;-74
2023/10/20 06:19:44;;;;;;;;;;;;;;;-144.99;100.00;52525.56;5076115;28;19932;-73
2023/10/20 06:22:10;;;;;;;;;;;;;;;-144.99;100.00;52484.78;5068858;28;20024;-73
2023/10/20 06:24:37;;;;;;;;;;;;;;;-144.99;100.00;52484.78;5074688;28;20497;-73
2023/10/20 06:27:03;;;;;;;;;;;;;;;-144.99;100.00;52456.25;5087673;28;20302;-74
2023/10/20 06:29:42;;;;;;;;;;;;;;;-144.99;100.00;52464.41;5084106;28;20026;-73
2023/10/20 06:32:21;;;;;;;;;;;;;;;-144.99;100.00;52521.47;5076540;28;19967;-73
2023/10/20 06:34:48;;;;;;;;;;;;;;;-144.99;100.00;52484.78;5092035;28;19928;-73
2023/10/20 06:37:22;;;;;;;;;;;;;;;-144.99;100.00;52470.50;5074739;28;19981;-74
2023/10/20 06:39:49;;;;;;;;;;;;;;;-144.99;100.00;52492.94;5086038;28;19924;-74
2023/10/20 06:42:16;;;;;;;;;;;;;;;-144.99;100.00;52509.25;5085985;28;19986;-74
2023/10/20 06:44:43;;;;;;;;;;;;;;;-144.99;100.00;52480.72;5081966;28;20014;-74
2023/10/20 06:47:11;;;;;;;;;;;;;;;-144.99;100.00;52486.81;5080287;28;19924;-74
2023/10/20 06:49:38;;;;;;;;;;;;;;;-144.99;100.00;52497.00;5071394;28;19963;-73
2023/10/20 06:52:04;;;;;;;;;;;;;;;-144.99;100.00;52486.81;5087550;28;19991;-74
2023/10/20 06:54:31;;;;;;;;;;;;;;;-144.99;100.00;52513.31;5088436;28;19928;-73
2023/10/20 06:56:57;;;;;;;;;;;;;;;-144.99;100.00;52486.81;5081601;28;19986;-74
2023/10/20 06:59:24;;;;;;;;;;;;;;;-144.99;100.00;52509.25;5078578;28;19924;-74
2023/10/20 07:01:52;;;;;;;;;;;;;;;-144.99;100.00;52503.13;5086959;28;20527;-74
2023/10/20 07:04:21;;;;;;;;;;;;;;;-144.99;100.00;52492.94;5085573;28;20306;-74
2023/10/20 07:06:49;;;;;;;;;;;;;;;-144.99;100.00;52497.00;5086458;28;19928;-76
2023/10/20 07:09:16;;;;;;;;;;;;;;;-144.99;100.00;52464.41;5076845;28;19935;-75
2023/10/20 07:11:43;;;;;;;;;;;;;;;-144.99;100.00;52464.41;5099733;28;19939;-74
2023/10/20 07:14:11;;;;;;;;;;;;;;;-144.99;100.00;52505.16;5090219;28;20035;-74
2023/10/20 07:16:37;;;;;;;;;;;;;;;-144.99;100.00;52480.72;5084965;28;20827;-74
2023/10/20 07:19:04;;;;;;;;;;;;;;;-144.99;100.00;52476.63;5080689;28;20762;-73
2023/10/20 07:21:32;;;;;;;;;;;;;;;-144.99;100.00;52431.78;5085140;28;20383;-73
2023/10/20 07:23:58;;;;;;;;;;;;;;;-144.99;100.00;52476.63;5086338;28;19932;-73
2023/10/20 07:26:25;;;;;;;;;;;;;;;-144.99;100.00;52456.25;5084547;28;19983;-73
2023/10/20 07:28:52;;;;;;;;;;;;;;;-144.99;100.00;52511.28;5075041;28;20001;-74
2023/10/20 07:31:21;;;;;;;;;;;;;;;-144.99;100.00;52472.56;5076067;28;19974;-73
2023/10/20 07:33:49;;;;;;;;;;;;;;;-144.99;100.00;52488.84;5086262;28;19928;-73
2023/10/20 07:36:15;;;;;;;;;;;;;;;-144.99;100.00;52494.97;5083714;28;20336;-72
2023/10/20 07:38:44;;;;;;;;;;;;;;;-144.99;100.00;52476.63;5102342;22;20029;-72
2023/10/20 07:41:12;;;;;;;;;;;;;;;-144.99;100.00;52492.94;5088024;28;19935;-69
2023/10/20 07:43:38;;;;;;;;;;;;;;;-144.99;100.00;52492.94;5089481;28;20110;-71
2023/10/20 07:46:05;;;;;;;;;;;;;;;-144.99;100.00;52497.00;5088799;28;20362;-68
2023/10/20 07:48:32;;;;;;;;;;;;;;;-144.99;100.00;52529.63;5080551;28;19932;-73
2023/10/20 07:51:00;;;;;;;;;;;;;;;-144.99;100.00;52476.63;5086769;28;19934;-70
2023/10/20 07:53:26;;;;;;;;;;;;;;;-144.99;100.00;52474.59;5083697;28;20015;-73
2023/10/20 07:55:54;;;;;;;;;;;;;;;-144.99;100.00;52488.84;5085380;28;20034;-70
2023/10/20 07:58:21;;;;;;;;;;;;;;;-144.99;100.00;52497.00;5085723;28;20012;-70
2023/10/20 08:00:47;;;;;;;;;;;;;;;-144.99;100.00;52513.31;5089826;28;19999;-72
2023/10/20 08:03:14;;;;;;;;;;;;;;;-144.99;100.00;52482.75;5077023;28;20388;-71
2023/10/20 08:05:41;;;;;;;;;;;;;;;-144.99;100.00;52509.25;5085767;28;20266;-75
2023/10/20 08:08:07;;;;;;;;;;;;;;;-144.99;100.00;52505.16;5091160;28;20008;-70
2023/10/20 08:10:34;;;;;;;;;;;;;;;-144.99;100.00;52509.25;5084068;28;20412;-69
2023/10/20 08:13:02;;;;;;;;;;;;;;;-144.99;100.00;52480.72;5079581;28;19969;-72
2023/10/20 08:15:29;;;;;;;;;;;;;;;-144.99;100.00;52482.75;5070611;28;19944;-70
2023/10/20 08:17:56;;;;;;;;;;;;;;;-144.99;100.00;52509.25;5088377;28;19958;-74
2023/10/20 08:20:22;;;;;;;;;;;;;;;-144.99;100.00;52464.41;5084889;28;20035;-71
2023/10/20 08:22:49;;;;;;;;;;;;;;;-144.99;100.00;52472.56;5085374;28;20037;-72
2023/10/20 08:25:15;;;;;;;;;;;;;;;-144.99;100.00;52476.63;5094747;28;20017;-72
2023/10/20 08:27:42;;;;;;;;;;;;;;;-144.99;100.00;52484.78;5089067;28;20045;-71
2023/10/20 08:30:11;;;;;;;;;;;;;;;-144.99;100.00;52482.75;5082875;28;19959;-71
2023/10/20 08:32:38;;;;;;;;;;;;;;;-144.99;100.00;52476.63;5086677;28;20035;-71
2023/10/20 08:35:07;;;;;;;;;;;;;;;-144.99;100.00;52515.34;5075697;28;19965;-72
2023/10/20 08:37:34;;;;;;;;;;;;;;;-144.99;100.00;52476.63;5089026;28;20372;-70
2023/10/20 08:40:00;;;;;;;;;;;;;;;-144.99;100.00;52517.41;5086645;28;20046;-74
2023/10/20 08:42:27;;;;;;;;;;;;;;;-144.99;100.00;52456.25;5080609;28;19974;-75
2023/10/20 08:44:53;;;;;;;;;;;;;;;-144.99;100.00;52488.84;5085554;28;20409;-74
2023/10/20 08:47:23;;;;;;;;;;;;;;;-144.99;100.00;52472.56;5076873;28;19962;-70
2023/10/20 08:49:49;;;;;;;;;;;;;;;-144.99;100.00;52494.97;5089617;28;20362;-71
2023/10/20 08:52:16;;;;;;;;;;;;;;;-144.99;100.00;52499.06;5081113;28;19933;-70
2023/10/20 08:54:43;;;;;;;;;;;;;;;-144.99;100.00;52484.78;5083030;28;19982;-71
2023/10/20 08:57:09;;;;;;;;;;;;;;;-144.99;100.00;52517.41;5089871;28;20571;-71
2023/10/20 08:59:36;;;;;;;;;;;;;;;-144.99;100.00;52478.66;5084271;28;19974;-71
2023/10/20 09:02:03;;;;;;;;;;;;;;;-144.99;100.00;52484.78;5079189;28;20016;-75
2023/10/20 09:04:31;;;;;;;;;;;;;;;-144.99;100.00;52470.50;5083696;28;19993;-73
2023/10/20 09:06:59;;;;;;;;;;;;;;;-144.99;100.00;52521.47;5085359;28;19975;-70
2023/10/20 09:09:25;;;;;;;;;;;;;;;-144.99;100.00;52515.34;5090014;28;20022;-72
2023/10/20 09:11:53;;;;;;;;;;;;;;;-144.99;100.00;52484.78;5073470;28;20014;-71
2023/10/20 09:14:19;;;;;;;;;;;;;;;-144.99;100.00;52541.84;5075753;28;19932;-72
2023/10/20 09:16:47;;;;;;;;;;;;;;;-144.99;100.00;52476.63;5081691;28;20317;-72
2023/10/20 09:19:14;;;;;;;;;;;;;;;-144.99;100.00;52468.47;5087873;28;19934;-70
2023/10/20 09:21:46;;;;;;;;;;;;;;;-144.99;100.00;52472.56;5087662;28;19940;-70
2023/10/20 09:24:15;;;;;;;;;;;;;;;-144.99;100.00;52484.78;5081118;28;19931;-73
2023/10/20 09:26:43;;;;;;;;;;;;;;;-144.99;100.00;52517.41;5081309;28;19928;-73
2023/10/20 09:29:10;;;;;;;;;;;;;;;-144.99;100.00;52501.09;5079063;28;20414;-69
2023/10/20 09:31:37;;;;;;;;;;;;;;;-144.99;100.00;52521.47;5088122;28;20034;-71
2023/10/20 09:34:04;;;;;;;;;;;;;;;-144.99;100.00;52448.09;5081707;28;20365;-73
2023/10/20 09:36:31;;;;;;;;;;;;;;;-144.99;100.00;52472.56;5075791;28;19934;-72
2023/10/20 09:38:59;;;;;;;;;;;;;;;-144.99;100.00;52468.47;5086568;28;19928;-70
2023/10/20 09:41:27;;;;;;;;;;;;;;;-144.99;100.00;52460.31;5076654;28;20319;-70
2023/10/20 09:43:56;;;;;;;;;;;;;;;-144.99;100.00;52497.00;5087279;28;19971;-73
2023/10/20 09:46:27;;;;;;;;;;;;;;;-144.99;100.00;52484.78;5087556;28;19964;-71
2023/10/20 09:48:55;;;;;;;;;;;;;;;-144.99;100.00;52472.56;5079767;28;19991;-71
2023/10/20 09:51:22;;;;;;;;;;;;;;;-144.99;100.00;52521.47;5078200;28;20405;-73
2023/10/20 09:53:49;;;;;;;;;;;;;;;-144.99;100.00;52505.16;5081078;28;20305;-72
2023/10/20 09:56:17;;;;;;;;;;;;;;;-144.99;100.00;52456.25;5087496;28;19928;-72
2023/10/20 09:58:43;;;;;;;;;;;;;;;-144.99;100.00;52484.78;5082865;28;20031;-73
2023/10/20 10:01:13;;;;;;;;;;;;;;;-144.99;100.00;52468.47;5085957;28;20575;-70
2023/10/20 10:03:40;;;;;;;;;;;;;;;-144.99;100.00;52488.84;5077542;28;20347;-69
2023/10/20 10:06:11;;;;;;;;;;;;;;;-144.99;100.00;52492.94;5085602;28;19998;-72
2023/10/20 10:08:40;;;;;;;;;;;;;;;-144.99;100.00;52476.63;5082869;28;19928;-71
2023/10/20 10:11:21;;;;;;;;;;;;;;;-144.99;100.00;52488.84;5081828;28;20027;-72
2023/10/20 10:13:53;;;;;;;;;;;;;;;-144.99;100.00;52474.59;5086933;28;19935;-70
2023/10/20 10:16:20;;;;;;;;;;;;;;;-144.99;100.00;52480.72;5085274;28;20087;-72
2023/10/20 10:18:46;;;;;;;;;;;;;;;-144.99;100.00;52484.78;5069774;28;20019;-71
2023/10/20 10:21:23;;;;;;;;;;;;;;;-144.99;100.00;52497.00;5083950;28;20046;-69
2023/10/20 10:24:07;;;;;;;;;;;;;;;-144.99;100.00;52490.91;5079062;28;19985;-71
2023/10/20 10:26:35;;;;;;;;;;;;;;;-144.99;100.00;52462.34;5085048;28;19968;-68
2023/10/20 10:29:01;;;;;;;;;;;;;;;-144.99;100.00;52464.41;5083759;28;19956;-70
2023/10/20 10:31:34;;;;;;;;;;;;;;;-144.99;100.00;52492.94;5089350;28;20011;-69
2023/10/20 10:34:01;;;;;;;;;;;;;;;-144.99;100.00;52521.47;5087741;28;20015;-70
2023/10/20 10:36:27;;;;;;;;;;;;;;;-144.99;100.00;52484.78;5078391;28;19925;-70
2023/10/20 10:38:54;;;;;;;;;;;;;;;-144.99;100.00;52484.78;5086815;28;19943;-68
2023/10/20 10:41:24;;;;;;;;;;;;;;;-144.99;100.00;52470.50;5092285;28;20028;-70
2023/10/20 10:43:54;;;;;;;;;;;;;;;-144.99;100.00;52472.56;5088838;28;19939;-72
2023/10/20 10:46:21;;;;;;;;;;;;;;;-144.99;100.00;52494.97;5078805;28;19958;-69
2023/10/20 10:48:47;;;;;;;;;;;;;;;-144.99;100.00;52488.84;5086097;28;19947;-71
2023/10/20 10:51:14;;;;;;;;;;;;;;;-144.99;100.00;52513.31;5087512;28;20312;-72
2023/10/20 10:53:43;;;;;;;;;;;;;;;-144.99;100.00;52480.72;5081464;28;19955;-69
2023/10/20 10:56:10;;;;;;;;;;;;;;;-144.99;100.00;52497.00;5088740;28;19928;-69
2023/10/20 10:58:36;;;;;;;;;;;;;;;-144.99;100.00;52472.56;5086045;28;19975;-69
2023/10/20 11:01:04;;;;;;;;;;;;;;;-144.99;100.00;52478.66;5078795;28;20373;-68
2023/10/20 11:03:31;;;;;;;;;;;;;;;-144.99;100.00;52444.03;5083737;28;19971;-70
2023/10/20 11:05:58;;;;;;;;;;;;;;;-144.99;100.00;52505.16;5083451;28;19924;-70
2023/10/20 11:08:28;;;;;;;;;;;;;;;-144.99;100.00;52464.41;5082797;28;20008;-72
2023/10/20 11:10:59;;;;;;;;;;;;;;;-144.99;100.00;52492.94;5077313;28;19939;-70
2023/10/20 11:13:28;;;;;;;;;;;;;;;-144.99;100.00;52490.91;5084810;28;19973;-68
2023/10/20 11:15:54;;;;;;;;;;;;;;;-144.99;100.00;52484.78;5081112;28;20024;-71
2023/10/20 11:18:22;;;;;;;;;;;;;;;-144.99;100.00;52480.72;5086482;28;19993;-70
2023/10/20 11:20:49;;;;;;;;;;;;;;;-144.99;100.00;52456.25;5085515;28;19977;-71
2023/10/20 11:23:19;;;;;;;;;;;;;;;-144.99;100.00;52497.00;5089839;28;20011;-70
2023/10/20 11:25:47;;;;;;;;;;;;;;;-144.99;100.00;52464.41;5088360;28;19928;-70
2023/10/20 11:28:14;;;;;;;;;;;;;;;-144.99;100.00;52513.31;5080814;28;19928;-67
2023/10/20 11:30:41;;;;;;;;;;;;;;;-144.99;100.00;52464.41;5082695;28;19979;-69
2023/10/20 11:33:10;;;;;;;;;;;;;;;-144.99;100.00;52452.16;5088185;28;19959;-70
2023/10/20 11:35:38;;;;;;;;;;;;;;;-144.99;100.00;52478.66;5085058;28;20048;-69
2023/10/20 11:38:05;;;;;;;;;;;;;;;-144.99;100.00;52505.16;5088750;28;20065;-70
2023/10/20 11:40:32;;;;;;;;;;;;;;;-144.99;100.00;52484.78;5080837;28;20461;-68
2023/10/20 11:42:59;;;;;;;;;;;;;;;-144.99;100.00;52476.63;5086652;28;20396;-67
2023/10/20 11:45:25;;;;;;;;;;;;;;;-144.99;100.00;52509.25;5084538;28;20011;-70
2023/10/20 11:47:52;;;;;;;;;;;;;;;-144.99;100.00;52468.47;5092628;28;20038;-67
2023/10/20 11:50:19;;;;;;;;;;;;;;;-144.99;100.00;52488.84;5087682;28;20347;-69
2023/10/20 11:52:47;;;;;;;;;;;;;;;-144.99;100.00;52488.84;5085863;28;19928;-68
2023/10/20 11:55:13;;;;;;;;;;;;;;;-144.99;100.00;52480.72;5077481;28;19935;-68
2023/10/20 11:57:40;;;;;;;;;;;;;;;-144.99;100.00;52460.31;5088419;28;19928;-69
2023/10/20 12:00:09;;;;;;;;;;;;;;;-144.99;100.00;52501.09;5086263;28;20049;-70
2023/10/20 12:02:36;;;;;;;;;;;;;;;-144.99;100.00;52468.47;5091046;28;19958;-67
2023/10/20 12:05:02;;;;;;;;;;;;;;;-144.99;100.00;52497.00;5088749;28;20383;-67
2023/10/20 12:07:29;;;;;;;;;;;;;;;-144.99;100.00;52511.28;5076456;28;20013;-69
2023/10/20 12:09:56;;;;;;;;;;;;;;;-144.99;100.00;52480.72;5087652;28;19986;-68
2023/10/20 12:12:23;;;;;;;;;;;;;;;-144.99;100.00;52505.16;5078201;28;19997;-69
2023/10/20 12:14:50;;;;;;;;;;;;;;;-144.99;100.00;52517.41;5083012;28;20021;-67
2023/10/20 12:17:16;;;;;;;;;;;;;;;-144.99;100.00;52472.56;5080288;28;20160;-68
2023/10/20 12:19:43;;;;;;;;;;;;;;;-144.99;100.00;52509.25;5083168;28;19965;-70
2023/10/20 12:22:09;;;;;;;;;;;;;;;-144.99;100.00;52497.00;5085354;28;20067;-68
2023/10/20 12:24:36;;;;;;;;;;;;;;;-144.99;100.00;52501.09;5072483;28;19982;-69
2023/10/20 12:27:05;;;;;;;;;;;;;;;-144.99;100.00;52488.84;5085065;28;20011;-68
2023/10/20 12:29:32;;;;;;;;;;;;;;;-144.99;100.00;52490.91;5079698;28;20282;-69
2023/10/20 12:31:58;;;;;;;;;;;;;;;-144.99;100.00;52472.56;5085123;28;20022;-70
2023/10/20 12:34:25;;;;;;;;;;;;;;;-144.99;100.00;52509.25;5080717;28;19936;-71
2023/10/20 12:36:51;;;;;;;;;;;;;;;-144.99;100.00;52497.00;5080692;28;20024;-71
2023/10/20 12:39:18;;;;;;;;;;;;;;;-144.99;100.00;52521.47;5090019;28;19962;-69